< < Back
Terminal Aerodrome Forecast


Current Version              Previous Versions:   1  2  3  4  5  6  7  8  9  

Terminal Aerodrome Forecast

329
FTUS42 KFFC 250500
TAFAHN
TAF
KAHN 250529Z 2506/2606 00000KT P6SM SKC
     FM251500 33005KT P6SM SKC
     FM260400 31004KT P6SM FEW025=



Latest METAR

756
SAUS70 KWBC 251054
MTRAHN
METAR KAHN 251051Z AUTO 28003KT 7SM CLR 07/06 A3004 RMK AO2 SLP172
T00670056


USA.gov is the U.S. government's official web portal to all federal, state and local government web resources and services.